Time;durP1;ratioP1;P1;durP2;ratioP2;P2;SDS_P1;SDS_P2;PMS_P1;PMS_P2;Temp;Humidity;BMP_temperature;BMP_pressure;BME280_temperature;BME280_humidity;BME280_pressure;Samples;Min_cycle;Max_cycle;Signal;HPM_P1;HPM_P2
2021/09/12 00:00:16;;;;;;;39.70;31.52;;;;;;;20.56;96.94;101010.28;6278245;22;20007;-73
2021/09/12 00:03:01;;;;;;;42.13;32.63;;;;;;;20.42;98.06;101011.97;6277916;22;20015;-73
2021/09/12 00:05:47;;;;;;;50.55;33.60;;;;;;;20.44;98.25;101018.94;6278573;22;20314;-73
2021/09/12 00:08:33;;;;;;;48.95;33.58;;;;;;;20.64;97.31;101010.75;6277791;22;20073;-73
2021/09/12 00:11:19;;;;;;;45.30;32.85;;;;;;;20.43;99.29;101006.56;6279475;22;20012;-73
2021/09/12 00:14:04;;;;;;;44.72;33.83;;;;;;;20.63;98.35;101013.47;6277931;22;20045;-73
2021/09/12 00:16:50;;;;;;;48.30;33.47;;;;;;;20.40;99.95;101008.53;6277284;22;20311;-73
2021/09/12 00:19:36;;;;;;;47.47;34.20;;;;;;;20.45;100.00;101007.34;6277440;22;20086;-73
2021/09/12 00:22:22;;;;;;;47.60;34.15;;;;;;;20.57;99.87;101009.34;6276989;22;20287;-73
2021/09/12 00:25:08;;;;;;;48.40;33.88;;;;;;;20.23;100.00;101009.44;6277801;22;20095;-73
2021/09/12 00:27:54;;;;;;;47.95;33.33;;;;;;;20.66;100.00;101010.66;6277083;22;20003;-73
2021/09/12 00:30:40;;;;;;;47.50;34.75;;;;;;;20.38;100.00;101002.44;6279353;22;20106;-73
2021/09/12 00:33:30;;;;;;;50.50;34.10;;;;;;;20.56;100.00;100999.66;6277102;22;19999;-73
2021/09/12 00:36:16;;;;;;;43.97;33.25;;;;;;;20.28;100.00;100996.72;6277898;22;20012;-73
2021/09/12 00:39:02;;;;;;;51.65;34.33;;;;;;;20.10;100.00;101000.38;6277145;22;20003;-73
2021/09/12 00:41:48;;;;;;;47.03;34.80;;;;;;;20.24;100.00;101000.50;6277489;22;20042;-74
2021/09/12 00:44:34;;;;;;;48.22;34.60;;;;;;;20.27;100.00;100996.81;6276788;22;20015;-73
2021/09/12 00:47:20;;;;;;;55.30;35.92;;;;;;;20.15;100.00;100995.66;6278363;22;20030;-73
2021/09/12 00:50:07;;;;;;;50.97;34.60;;;;;;;19.88;100.00;100996.16;6277124;22;20472;-73
2021/09/12 00:53:00;;;;;;;48.10;37.03;;;;;;;20.15;100.00;101001.00;6277736;22;20399;-73
2021/09/12 00:55:47;;;;;;;45.28;33.60;;;;;;;20.01;100.00;100997.28;6277094;22;20003;-73
2021/09/12 00:58:36;;;;;;;48.72;35.65;;;;;;;19.90;100.00;100997.84;6276822;22;20011;-73
2021/09/12 01:01:25;;;;;;;54.75;37.10;;;;;;;19.71;100.00;100989.06;6277408;22;20007;-73
2021/09/12 01:04:11;;;;;;;61.05;42.63;;;;;;;19.98;100.00;100998.31;6276724;22;20382;-73
2021/09/12 01:06:57;;;;;;;48.63;37.22;;;;;;;19.88;100.00;100996.16;6276793;22;20433;-73
2021/09/12 01:09:43;;;;;;;55.75;37.33;;;;;;;19.76;100.00;100992.34;6276731;22;20302;-73
2021/09/12 01:12:30;;;;;;;50.28;36.58;;;;;;;20.07;100.00;100999.63;6276944;22;19999;-73
2021/09/12 01:15:16;;;;;;;47.95;36.10;;;;;;;20.27;100.00;100999.47;6276896;22;20031;-73
2021/09/12 01:18:02;;;;;;;52.30;36.22;;;;;;;20.00;100.00;101000.88;6277024;22;20279;-72
2021/09/12 01:20:47;;;;;;;55.58;37.40;;;;;;;19.49;100.00;100992.88;6276828;22;20003;-73
2021/09/12 01:23:33;;;;;;;52.03;37.95;;;;;;;19.81;100.00;101005.44;6277392;22;20003;-72
2021/09/12 01:26:28;;;;;;;53.67;36.83;;;;;;;19.36;100.00;101007.72;6276464;22;20275;-73
2021/09/12 01:29:14;;;;;;;51.45;37.40;;;;;;;19.73;100.00;101004.94;6276446;22;20026;-72
2021/09/12 01:32:00;;;;;;;49.80;35.95;;;;;;;19.58;100.00;101005.72;6276987;22;20003;-72
2021/09/12 01:34:46;;;;;;;41.67;33.17;;;;;;;19.98;100.00;101006.28;6278336;22;20003;-72
2021/09/12 01:37:32;;;;;;;36.10;26.67;;;;;;;19.79;100.00;101002.84;6277606;22;20004;-72
2021/09/12 01:40:17;;;;;;;32.55;26.17;;;;;;;19.81;100.00;101000.94;6276348;22;20018;-72
2021/09/12 01:43:03;;;;;;;39.30;28.40;;;;;;;19.85;97.71;101005.16;6276918;22;20019;-73
2021/09/12 01:45:49;;;;;;;38.40;29.50;;;;;;;19.64;93.91;101006.25;6276463;22;20353;-73
2021/09/12 01:48:35;;;;;;;39.40;28.63;;;;;;;19.54;90.96;101010.34;6276785;22;20030;-73
2021/09/12 01:51:20;;;;;;;39.58;31.33;;;;;;;19.53;89.79;101013.91;6278291;22;20039;-72
2021/09/12 01:54:07;;;;;;;43.78;30.95;;;;;;;19.57;89.73;101011.97;6277389;22;20398;-73
2021/09/12 01:56:52;;;;;;;35.55;25.73;;;;;;;19.53;89.06;101016.56;6276296;22;20003;-73
2021/09/12 01:59:38;;;;;;;31.75;23.48;;;;;;;19.31;90.29;101021.22;6277427;22;20003;-73
2021/09/12 02:02:24;;;;;;;33.50;23.40;;;;;;;18.80;94.56;101023.63;6276044;22;20012;-73
2021/09/12 02:05:10;;;;;;;31.98;22.95;;;;;;;19.03;93.85;101020.78;6275293;22;20008;-73
2021/09/12 02:07:56;;;;;;;32.22;22.98;;;;;;;18.87;95.00;101025.94;6276344;22;20128;-73
2021/09/12 02:10:45;;;;;;;29.38;22.48;;;;;;;19.13;93.14;101022.91;6276027;22;20011;-73
2021/09/12 02:13:31;;;;;;;25.98;21.10;;;;;;;18.77;93.30;101018.50;6276637;22;20087;-73
2021/09/12 02:16:17;;;;;;;30.02;20.75;;;;;;;18.88;94.09;101032.97;6276168;22;20017;-73
2021/09/12 02:19:03;;;;;;;30.77;20.73;;;;;;;18.62;97.74;101024.50;6277852;22;20450;-73
2021/09/12 02:21:48;;;;;;;29.70;21.02;;;;;;;18.54;98.11;101019.53;6276986;22;20083;-73
2021/09/12 02:24:35;;;;;;;29.75;20.25;;;;;;;18.10;100.00;101025.91;6276782;22;20015;-73
2021/09/12 02:27:21;;;;;;;27.20;20.58;;;;;;;17.96;100.00;101027.41;6276272;22;20008;-74
2021/09/12 02:30:07;;;;;;;31.70;20.67;;;;;;;17.89;100.00;101018.00;6276197;22;20015;-73
2021/09/12 02:32:53;;;;;;;28.80;20.33;;;;;;;17.85;100.00;101022.56;6276619;22;20004;-73
2021/09/12 02:35:39;;;;;;;25.75;18.77;;;;;;;17.86;100.00;101019.00;6277362;22;20318;-73
2021/09/12 02:38:25;;;;;;;27.67;19.50;;;;;;;18.09;100.00;101020.66;6278726;22;20003;-74
2021/09/12 02:41:10;;;;;;;29.77;20.23;;;;;;;18.13;100.00;101006.34;6278042;22;20076;-73
2021/09/12 02:43:56;;;;;;;29.52;19.65;;;;;;;18.15;100.00;101015.09;6279649;22;20007;-73
2021/09/12 02:46:42;;;;;;;24.63;19.88;;;;;;;18.52;100.00;101004.59;6279002;22;20018;-73
2021/09/12 02:49:28;;;;;;;25.42;18.52;;;;;;;18.90;97.86;101009.00;6278444;22;20003;-73
2021/09/12 02:52:13;;;;;;;27.52;19.63;;;;;;;18.54;100.00;101010.72;6278086;22;20035;-73
2021/09/12 02:54:59;;;;;;;30.75;20.08;;;;;;;17.88;100.00;101009.19;6278112;22;20003;-74
2021/09/12 02:57:45;;;;;;;28.17;19.55;;;;;;;17.94;100.00;101005.41;6278155;22;20069;-74
2021/09/12 03:00:31;;;;;;;27.52;19.48;;;;;;;17.89;100.00;101010.06;6278493;22;20008;-74
2021/09/12 03:03:17;;;;;;;26.65;20.20;;;;;;;18.13;100.00;101007.19;6278011;22;20576;-74
2021/09/12 03:06:02;;;;;;;28.50;19.95;;;;;;;17.84;100.00;101006.75;6279004;22;20294;-74
2021/09/12 03:08:48;;;;;;;27.90;19.85;;;;;;;17.92;100.00;101008.13;6278341;22;20015;-74
2021/09/12 03:11:34;;;;;;;25.05;18.15;;;;;;;18.00;100.00;101016.63;6278304;22;20008;-74
2021/09/12 03:14:20;;;;;;;24.90;18.95;;;;;;;18.25;100.00;101024.38;6278037;22;20375;-75
2021/09/12 03:17:06;;;;;;;27.50;19.70;;;;;;;18.16;100.00;101024.75;6277824;22;20053;-74
2021/09/12 03:19:51;;;;;;;25.08;18.60;;;;;;;18.16;100.00;101033.59;6277022;22;20003;-74
2021/09/12 03:22:37;;;;;;;27.10;18.58;;;;;;;17.93;100.00;101033.72;6277511;22;20034;-74
2021/09/12 03:25:23;;;;;;;23.65;18.05;;;;;;;17.89;100.00;101031.28;6279455;22;20058;-74
2021/09/12 03:28:09;;;;;;;26.15;18.45;;;;;;;18.01;100.00;101036.88;6277840;22;20019;-74
2021/09/12 03:30:55;;;;;;;27.30;18.83;;;;;;;17.75;100.00;101033.63;6278372;22;20023;-73
2021/09/12 03:33:41;;;;;;;24.27;18.15;;;;;;;17.76;100.00;101030.06;6277127;22;20065;-73
2021/09/12 03:36:27;;;;;;;25.17;17.83;;;;;;;17.98;100.00;101038.81;6278725;22;20039;-73
2021/09/12 03:39:12;;;;;;;24.88;18.45;;;;;;;17.82;100.00;101033.31;6276164;22;20004;-73
2021/09/12 03:41:58;;;;;;;25.65;18.58;;;;;;;17.51;100.00;101029.31;6277875;22;20018;-73
2021/09/12 03:44:44;;;;;;;26.77;19.33;;;;;;;17.67;100.00;101031.28;6277841;22;20004;-73
2021/09/12 03:47:30;;;;;;;26.23;18.65;;;;;;;17.88;100.00;101033.03;6278459;22;20327;-73
2021/09/12 03:50:15;;;;;;;26.27;19.85;;;;;;;18.00;100.00;101036.94;6275397;22;20011;-73
2021/09/12 03:53:01;;;;;;;29.77;19.70;;;;;;;18.03;100.00;101037.69;6277525;22;20000;-73
2021/09/12 03:55:47;;;;;;;25.33;19.27;;;;;;;18.06;100.00;101040.22;6278046;22;19999;-73
2021/09/12 03:58:33;;;;;;;27.40;20.40;;;;;;;18.10;100.00;101046.25;6277620;22;20003;-73
2021/09/12 04:01:19;;;;;;;26.02;19.73;;;;;;;18.22;100.00;101049.25;6277968;22;19999;-73
2021/09/12 04:04:04;;;;;;;27.35;18.73;;;;;;;17.97;100.00;101047.72;6277417;22;20003;-73
2021/09/12 04:06:50;;;;;;;27.25;19.88;;;;;;;18.02;100.00;101054.56;6279505;22;20011;-73
2021/09/12 04:09:36;;;;;;;29.58;19.23;;;;;;;18.22;100.00;101056.34;6278102;22;20410;-73
2021/09/12 04:12:22;;;;;;;28.52;19.50;;;;;;;18.50;100.00;101055.09;6278480;22;20015;-73
2021/09/12 04:15:08;;;;;;;29.33;19.23;;;;;;;18.31;100.00;101058.59;6278368;22;20314;-73
2021/09/12 04:17:53;;;;;;;28.08;19.35;;;;;;;18.24;100.00;101054.47;6278386;22;20004;-73
2021/09/12 04:20:39;;;;;;;27.95;20.73;;;;;;;18.40;100.00;101058.19;6276542;22;20030;-73
2021/09/12 04:23:25;;;;;;;26.58;19.27;;;;;;;18.46;100.00;101053.53;6277268;22;20007;-73
2021/09/12 04:26:11;;;;;;;29.52;19.23;;;;;;;18.36;100.00;101065.44;6277438;22;20003;-73
2021/09/12 04:28:56;;;;;;;24.35;19.35;;;;;;;18.38;100.00;101068.91;6278899;22;20085;-73
2021/09/12 04:31:42;;;;;;;26.80;19.73;;;;;;;18.48;100.00;101072.88;6277459;22;20004;-73
2021/09/12 04:34:28;;;;;;;28.73;19.52;;;;;;;18.70;100.00;101075.44;6276968;22;20015;-73
2021/09/12 04:37:14;;;;;;;27.25;19.52;;;;;;;18.43;100.00;101079.31;6279045;22;20019;-73
2021/09/12 04:40:00;;;;;;;32.55;19.20;;;;;;;18.36;100.00;101083.16;6277165;22;20008;-73
2021/09/12 04:42:46;;;;;;;27.42;19.45;;;;;;;17.87;100.00;101081.69;6277354;22;20004;-73
2021/09/12 04:45:32;;;;;;;29.10;19.40;;;;;;;17.73;100.00;101086.69;6278658;22;20004;-73
2021/09/12 04:48:17;;;;;;;29.35;21.75;;;;;;;17.64;100.00;101092.38;6277608;22;20012;-73
2021/09/12 04:51:03;;;;;;;29.95;20.35;;;;;;;18.03;100.00;101081.91;6278708;22;20061;-73
2021/09/12 04:53:49;;;;;;;27.45;21.52;;;;;;;18.13;100.00;101092.06;6276107;22;20004;-74
2021/09/12 04:56:35;;;;;;;31.73;22.70;;;;;;;18.32;100.00;101081.53;6275736;22;20318;-75
2021/09/12 04:59:21;;;;;;;35.97;23.48;;;;;;;18.57;98.42;101082.22;6275927;22;20087;-74
2021/09/12 05:02:06;;;;;;;33.42;23.05;;;;;;;18.43;99.81;101082.84;6277385;22;20035;-73
2021/09/12 05:04:52;;;;;;;34.63;24.08;;;;;;;18.56;98.07;101073.41;6277079;22;20377;-74
2021/09/12 05:07:38;;;;;;;33.17;24.30;;;;;;;18.83;95.83;101081.91;6276889;22;20106;-74
2021/09/12 05:10:24;;;;;;;38.15;27.17;;;;;;;18.96;94.63;101083.94;6276894;22;20042;-73
2021/09/12 05:13:09;;;;;;;40.13;28.15;;;;;;;18.30;100.00;101086.91;6276886;22;20014;-73
2021/09/12 05:15:55;;;;;;;38.08;26.75;;;;;;;18.83;98.49;101087.22;6276758;22;20094;-73
2021/09/12 05:18:41;;;;;;;36.05;27.73;;;;;;;18.78;99.48;101081.25;6276808;22;20376;-74
2021/09/12 05:21:27;;;;;;;38.38;27.45;;;;;;;18.73;100.00;101076.16;6276739;22;20011;-74
2021/09/12 05:24:12;;;;;;;36.75;27.33;;;;;;;19.00;98.85;101082.00;6277559;22;20003;-72
2021/09/12 05:26:58;;;;;;;35.05;26.83;;;;;;;19.03;99.20;101082.72;6276372;22;20003;-72
2021/09/12 05:29:44;;;;;;;37.67;26.55;;;;;;;19.15;97.07;101087.47;6276691;22;20020;-72
2021/09/12 05:32:30;;;;;;;36.42;26.77;;;;;;;19.13;96.56;101088.47;6276822;22;20008;-72
2021/09/12 05:35:16;;;;;;;39.92;26.48;;;;;;;18.96;96.96;101093.69;6276388;22;20031;-72
2021/09/12 05:38:02;;;;;;;36.97;26.60;;;;;;;19.18;97.32;101084.66;6277100;22;20031;-73
2021/09/12 05:40:48;;;;;;;38.60;25.98;;;;;;;18.87;99.97;101088.81;6278080;22;20073;-74
2021/09/12 05:43:34;;;;;;;34.38;26.30;;;;;;;19.08;98.89;101094.00;6276517;22;20008;-72
2021/09/12 05:46:20;;;;;;;36.65;27.75;;;;;;;19.31;96.71;101087.63;6276359;22;20081;-72
2021/09/12 05:49:05;;;;;;;38.85;28.73;;;;;;;19.41;96.36;101091.56;6276894;22;20078;-72
2021/09/12 05:51:51;;;;;;;37.55;27.23;;;;;;;19.49;95.30;101081.44;6276541;22;20000;-72
2021/09/12 05:54:37;;;;;;;38.78;28.90;;;;;;;19.29;97.36;101086.00;6275979;22;20007;-72
2021/09/12 05:57:23;;;;;;;41.33;29.13;;;;;;;19.43;97.73;101081.75;6275625;22;20014;-72
2021/09/12 06:00:09;;;;;;;48.72;32.28;;;;;;;19.56;96.26;101082.03;6276703;22;20007;-73
2021/09/12 06:02:55;;;;;;;43.47;31.70;;;;;;;19.73;94.81;101077.56;6275979;22;20004;-72
2021/09/12 06:05:40;;;;;;;45.53;33.47;;;;;;;19.57;96.24;101081.09;6276912;22;20410;-73
2021/09/12 06:08:26;;;;;;;54.20;35.20;;;;;;;19.86;93.09;101081.38;6277952;22;20044;-73
2021/09/12 06:11:12;;;;;;;51.90;37.17;;;;;;;20.08;90.58;101084.69;6276028;22;20003;-73
2021/09/12 06:13:58;;;;;;;50.00;35.08;;;;;;;19.84;91.60;101074.41;6276668;22;20065;-73
2021/09/12 06:16:44;;;;;;;47.25;34.53;;;;;;;19.49;94.75;101089.41;6277069;22;20007;-73
2021/09/12 06:19:29;;;;;;;46.17;34.17;;;;;;;19.81;94.20;101079.88;6275688;22;20177;-72
2021/09/12 06:22:15;;;;;;;43.97;34.22;;;;;;;19.42;96.19;101093.31;6277039;22;20031;-73
2021/09/12 06:25:01;;;;;;;40.20;31.55;;;;;;;20.46;89.79;101088.06;6276196;22;20008;-73
2021/09/12 06:27:47;;;;;;;40.90;31.75;;;;;;;20.28;91.33;101081.03;6277292;22;20069;-73
2021/09/12 06:30:33;;;;;;;41.03;32.22;;;;;;;20.91;84.76;101093.63;6276686;22;20015;-73
2021/09/12 06:33:19;;;;;;;51.00;33.42;;;;;;;20.91;81.40;101091.88;6276011;22;20061;-73
2021/09/12 06:36:05;;;;;;;42.40;31.88;;;;;;;21.17;81.57;101095.75;6277950;22;20008;-72
2021/09/12 06:38:51;;;;;;;40.17;30.80;;;;;;;20.85;85.85;101102.78;6276156;22;20288;-73
2021/09/12 06:41:37;;;;;;;38.88;31.13;;;;;;;20.61;90.03;101096.09;6277132;22;20015;-73
2021/09/12 06:44:23;;;;;;;38.38;30.42;;;;;;;20.80;89.00;101096.88;6277825;22;20062;-73
2021/09/12 06:47:09;;;;;;;41.70;30.50;;;;;;;20.86;88.08;101099.19;6276516;22;20034;-73
2021/09/12 06:49:55;;;;;;;53.85;31.67;;;;;;;20.87;87.81;101098.25;6278241;22;20065;-73
2021/09/12 06:52:41;;;;;;;40.80;30.38;;;;;;;20.96;87.72;101100.47;6277604;22;20042;-73
2021/09/12 06:55:26;;;;;;;43.30;30.70;;;;;;;20.81;88.32;101103.06;6275766;22;20012;-73
2021/09/12 06:58:12;;;;;;;38.15;30.63;;;;;;;21.24;85.45;101102.47;6276852;22;20035;-73
2021/09/12 07:00:58;;;;;;;39.90;32.65;;;;;;;21.10;86.96;101103.22;6256574;22;20014;-73
2021/09/12 07:03:44;;;;;;;45.70;33.22;;;;;;;21.33;87.12;101107.28;6276958;22;20027;-73
2021/09/12 07:06:30;;;;;;;61.75;31.75;;;;;;;21.55;85.26;101102.50;6278078;22;20027;-73
2021/09/12 07:09:16;;;;;;;51.25;30.75;;;;;;;21.94;82.75;101097.59;6277862;22;20023;-73
2021/09/12 07:12:01;;;;;;;65.55;31.63;;;;;;;21.64;84.64;101091.28;6277516;22;20085;-73
2021/09/12 07:14:47;;;;;;;40.63;32.28;;;;;;;21.76;85.85;101099.50;6277652;22;20003;-73
2021/09/12 07:17:33;;;;;;;44.42;31.02;;;;;;;21.70;84.91;101091.84;6277259;22;20038;-73
2021/09/12 07:20:19;;;;;;;42.58;31.70;;;;;;;21.81;84.56;101089.41;6277924;22;20003;-73
2021/09/12 07:23:04;;;;;;;39.72;31.38;;;;;;;22.13;81.95;101092.88;6278587;22;20054;-73
2021/09/12 07:25:50;;;;;;;42.58;30.48;;;;;;;22.49;78.97;101086.25;6256772;22;20008;-73
2021/09/12 07:28:37;;;;;;;43.00;32.00;;;;;;;22.75;76.05;101085.50;6277628;22;20070;-73
2021/09/12 07:31:23;;;;;;;45.53;32.03;;;;;;;23.09;73.44;101078.91;6278564;22;20069;-73
2021/09/12 07:34:09;;;;;;;41.95;30.45;;;;;;;22.96;72.29;101083.31;6257305;22;20019;-73
2021/09/12 07:36:55;;;;;;;48.70;31.75;;;;;;;22.76;73.87;101086.34;6276837;22;20031;-73
2021/09/12 07:39:40;;;;;;;42.25;30.02;;;;;;;22.72;74.82;101091.03;6279445;22;20008;-74
2021/09/12 07:42:26;;;;;;;44.03;29.88;;;;;;;23.30;70.96;101089.13;6277232;22;20268;-73
2021/09/12 07:45:12;;;;;;;40.65;28.63;;;;;;;23.62;70.05;101083.53;6277515;22;20003;-73
2021/09/12 07:47:58;;;;;;;34.17;28.50;;;;;;;23.28;72.01;101085.69;6278194;22;20008;-75
2021/09/12 07:50:45;;;;;;;38.45;29.75;;;;;;;23.64;71.16;101092.28;6258281;22;20390;-74
2021/09/12 07:53:31;;;;;;;38.08;27.83;;;;;;;23.97;71.17;101095.44;6278323;22;20061;-74
2021/09/12 07:56:17;;;;;;;35.65;28.10;;;;;;;24.47;68.96;101096.41;6277572;22;20008;-73
2021/09/12 07:59:03;;;;;;;40.35;27.75;;;;;;;24.95;65.70;101093.03;6277405;22;20339;-73
2021/09/12 08:01:49;;;;;;;33.78;27.20;;;;;;;25.15;64.60;101100.53;6276586;22;20030;-73
2021/09/12 08:04:34;;;;;;;31.83;26.63;;;;;;;25.21;64.58;101088.50;6277519;22;20101;-72
2021/09/12 08:07:20;;;;;;;35.22;26.85;;;;;;;24.67;68.26;101093.25;6276722;22;20003;-74
2021/09/12 08:10:06;;;;;;;32.05;26.08;;;;;;;24.90;65.57;101089.84;6277512;22;20418;-73
2021/09/12 08:12:52;;;;;;;31.80;24.58;;;;;;;25.81;62.96;101084.03;6278882;22;20003;-75
2021/09/12 08:15:38;;;;;;;30.35;24.25;;;;;;;26.01;60.67;101086.13;6278375;22;20019;-73
2021/09/12 08:18:24;;;;;;;27.67;23.30;;;;;;;26.20;59.32;101087.28;6277764;22;20008;-73
2021/09/12 08:21:11;;;;;;;31.00;23.92;;;;;;;26.67;56.77;101086.34;6276130;22;20026;-73
2021/09/12 08:23:56;;;;;;;33.08;23.63;;;;;;;26.99;55.57;101090.91;6277431;22;20008;-74
2021/09/12 08:26:42;;;;;;;31.08;23.08;;;;;;;26.00;56.04;101085.25;6277099;22;20082;-73
2021/09/12 08:29:28;;;;;;;29.65;21.75;;;;;;;26.50;55.67;101086.78;6277099;22;20476;-73
2021/09/12 08:32:14;;;;;;;23.92;20.27;;;;;;;27.36;52.57;101083.44;6259630;22;19999;-73
2021/09/12 08:34:59;;;;;;;31.85;20.48;;;;;;;27.01;51.73;101088.09;6256253;22;20011;-72
2021/09/12 08:37:45;;;;;;;30.60;20.90;;;;;;;27.46;50.82;101087.13;6276633;22;20345;-73
2021/09/12 08:40:32;;;;;;;26.15;19.50;;;;;;;27.63;50.27;101081.19;6257385;22;20007;-73
2021/09/12 08:43:19;;;;;;;28.90;19.48;;;;;;;28.10;48.27;101078.13;6276992;22;20380;-73
2021/09/12 08:46:05;;;;;;;23.27;19.80;;;;;;;27.63;49.61;101072.25;6275917;22;20007;-74
2021/09/12 08:48:51;;;;;;;25.75;18.85;;;;;;;27.91;48.22;101071.72;6257689;22;20062;-73
2021/09/12 08:51:37;;;;;;;25.23;17.98;;;;;;;27.86;48.21;101069.41;6256780;22;20018;-74
2021/09/12 08:54:22;;;;;;;28.33;18.85;;;;;;;27.98;48.58;101068.38;6278505;22;20004;-74
2021/09/12 08:57:09;;;;;;;27.52;18.80;;;;;;;28.36;47.77;101065.97;6278066;22;20003;-74
2021/09/12 08:59:55;;;;;;;29.33;18.20;;;;;;;28.84;46.08;101069.84;6254832;22;20046;-72
2021/09/12 09:02:40;;;;;;;27.02;17.13;;;;;;;28.12;45.58;101067.22;6278520;22;20011;-73
2021/09/12 09:05:35;;;;;;;31.00;19.02;;;;;;;28.55;45.35;101063.44;6277836;22;20433;-73
2021/09/12 09:08:21;;;;;;;30.17;17.35;;;;;;;29.14;43.66;101055.53;6277867;22;20040;-73
2021/09/12 09:11:07;;;;;;;31.27;16.45;;;;;;;28.81;44.26;101062.03;6275869;22;20066;-73
2021/09/12 09:13:52;;;;;;;20.05;13.68;;;;;;;28.41;43.32;101052.97;6278067;22;20083;-73
2021/09/12 09:16:40;;;;;;;22.50;14.18;;;;;;;28.82;43.41;101058.34;6278005;22;20024;-73
2021/09/12 09:19:26;;;;;;;20.17;12.82;;;;;;;28.31;43.64;101048.47;6278283;22;20016;-73
2021/09/12 09:22:37;;;;;;;21.13;13.25;;;;;;;28.54;42.93;101050.97;6255020;22;20007;-72
2021/09/12 09:25:26;;;;;;;19.85;12.77;;;;;;;28.71;43.00;101049.47;6278670;22;20113;-72
2021/09/12 09:28:13;;;;;;;20.33;12.63;;;;;;;28.39;42.92;101048.69;6276529;22;20014;-72
2021/09/12 09:30:59;;;;;;;22.95;11.50;;;;;;;28.51;41.55;101045.81;6275744;22;20019;-73
2021/09/12 09:33:45;;;;;;;22.52;10.95;;;;;;;28.53;41.54;101043.84;6277303;22;19999;-73
2021/09/12 09:36:31;;;;;;;22.10;11.15;;;;;;;28.49;41.48;101046.94;6276580;22;20398;-73
2021/09/12 09:39:37;;;;;;;18.75;11.00;;;;;;;28.23;41.54;101038.38;6275731;22;20055;-72
2021/09/12 09:42:44;;;;;;;18.00;10.98;;;;;;;28.46;41.28;101033.72;6256059;22;20006;-73
2021/09/12 09:45:38;;;;;;;18.77;10.70;;;;;;;28.41;39.99;101036.81;6255076;22;20008;-73
2021/09/12 09:48:32;;;;;;;20.85;9.50;;;;;;;28.32;41.06;101026.78;6275727;22;20007;-72
2021/09/12 09:51:18;;;;;;;12.25;8.55;;;;;;;28.54;38.36;101024.00;6278227;22;20014;-73
2021/09/12 09:54:04;;;;;;;11.60;7.85;;;;;;;28.35;39.44;101028.38;6277356;22;20062;-73
2021/09/12 09:56:51;;;;;;;11.85;8.18;;;;;;;28.31;37.13;101024.22;6276331;22;20022;-73
2021/09/12 09:59:37;;;;;;;14.35;8.02;;;;;;;28.29;37.42;101018.13;6277750;22;20003;-73
2021/09/12 10:02:23;;;;;;;12.20;7.50;;;;;;;28.38;35.82;101023.59;6276648;22;20014;-73
2021/09/12 10:05:12;;;;;;;10.10;7.47;;;;;;;28.16;36.71;101017.47;6278710;22;20003;-74
2021/09/12 10:07:58;;;;;;;14.05;7.43;;;;;;;28.45;35.69;101022.06;6278566;22;20003;-72
2021/09/12 10:10:44;;;;;;;16.35;7.95;;;;;;;28.45;36.63;101016.69;6278822;22;20066;-73
2021/09/12 10:13:31;;;;;;;16.20;7.80;;;;;;;28.76;34.93;101004.09;6276554;22;20014;-74
2021/09/12 10:16:18;;;;;;;10.95;7.63;;;;;;;28.81;34.53;101005.38;6276910;22;20338;-73
2021/09/12 10:19:04;;;;;;;11.40;7.93;;;;;;;28.80;35.42;101013.63;6277069;22;20003;-74
2021/09/12 10:21:50;;;;;;;11.32;7.50;;;;;;;28.83;34.99;101005.25;6275434;22;20011;-74
2021/09/12 10:25:02;;;;;;;12.48;7.72;;;;;;;28.58;35.94;101005.69;6277321;22;20346;-73
2021/09/12 10:27:57;;;;;;;17.48;7.82;;;;;;;28.33;35.68;101004.22;6277172;22;20118;-73
2021/09/12 10:30:44;;;;;;;11.02;7.63;;;;;;;28.89;36.57;101000.16;6277982;22;20019;-74
2021/09/12 10:33:29;;;;;;;14.45;9.25;;;;;;;29.10;36.51;100994.72;6276974;22;20418;-73
2021/09/12 10:36:22;;;;;;;17.60;8.20;;;;;;;28.94;36.26;100991.66;6277040;22;20012;-74
2021/09/12 10:39:27;;;;;;;21.40;8.90;;;;;;;29.74;36.36;100987.88;6277512;22;20008;-74
2021/09/12 10:42:14;;;;;;;16.92;9.40;;;;;;;29.75;36.81;100982.34;6255742;22;20091;-73
2021/09/12 10:45:21;;;;;;;14.07;8.63;;;;;;;29.42;36.54;100977.31;6276801;22;20314;-73
2021/09/12 10:48:21;;;;;;;14.63;8.45;;;;;;;29.85;35.99;100979.66;6277092;22;20084;-75
2021/09/12 10:51:09;;;;;;;13.13;8.00;;;;;;;29.23;36.63;100969.19;6276896;22;20030;-74
2021/09/12 10:53:55;;;;;;;12.10;8.85;;;;;;;29.55;36.78;100953.59;6255420;22;20000;-75
2021/09/12 10:56:41;;;;;;;12.27;8.43;;;;;;;30.24;36.03;100962.38;6277393;22;20014;-73
2021/09/12 10:59:27;;;;;;;19.00;8.80;;;;;;;30.50;35.54;100963.47;6278517;22;20003;-74
2021/09/12 11:02:16;;;;;;;15.82;8.73;;;;;;;29.98;36.10;100953.16;6258105;22;20003;-73
2021/09/12 11:05:25;;;;;;;17.05;9.00;;;;;;;29.96;35.93;100950.59;6278958;22;20364;-74
2021/09/12 11:08:10;;;;;;;13.07;9.13;;;;;;;29.96;35.74;100950.59;6280830;22;20004;-75
2021/09/12 11:10:57;;;;;;;17.23;9.10;;;;;;;30.16;35.70;100949.59;6256329;22;20018;-74
2021/09/12 11:13:43;;;;;;;15.73;8.77;;;;;;;29.84;35.89;100943.66;6257534;22;19999;-73
2021/09/12 11:16:29;;;;;;;11.43;8.63;;;;;;;29.69;35.71;100944.25;6279689;22;20003;-74
2021/09/12 11:19:15;;;;;;;15.70;8.52;;;;;;;29.83;35.60;100941.97;6280120;22;20008;-75
2021/09/12 11:22:01;;;;;;;11.80;7.85;;;;;;;29.93;35.47;100931.13;6256235;22;20354;-76
2021/09/12 11:24:59;;;;;;;16.33;8.82;;;;;;;30.42;35.66;100926.31;6278408;22;20004;-75
2021/09/12 11:28:00;;;;;;;12.70;8.25;;;;;;;30.64;34.73;100928.66;6278510;22;20090;-74
2021/09/12 11:30:49;;;;;;;11.32;7.75;;;;;;;30.22;35.08;100916.56;6279015;22;20030;-74
2021/09/12 11:33:47;;;;;;;11.90;8.38;;;;;;;30.88;34.67;100915.47;6277903;22;20042;-73
2021/09/12 11:36:48;;;;;;;13.05;7.45;;;;;;;31.07;34.23;100914.47;6256413;22;20003;-73
2021/09/12 11:39:39;;;;;;;19.40;8.68;;;;;;;31.55;34.19;100909.56;6276918;22;20015;-73
2021/09/12 11:42:26;;;;;;;12.55;7.35;;;;;;;31.28;32.75;100910.50;6279031;22;20000;-73
2021/09/12 11:45:15;;;;;;;10.77;6.53;;;;;;;30.67;33.74;100905.84;6278973;22;20004;-74
2021/09/12 11:48:02;;;;;;;14.13;7.70;;;;;;;30.40;34.09;100903.13;6278522;22;20086;-74
2021/09/12 11:50:48;;;;;;;14.50;7.40;;;;;;;30.29;33.04;100901.47;6279978;22;20007;-74
2021/09/12 11:53:33;;;;;;;10.18;6.82;;;;;;;30.63;32.94;100897.19;6277387;22;20004;-73
2021/09/12 11:56:19;;;;;;;13.40;7.53;;;;;;;30.86;31.91;100895.78;6278642;22;20043;-73
2021/09/12 11:59:07;;;;;;;9.52;7.13;;;;;;;30.76;32.88;100891.44;6278262;22;20000;-74
2021/09/12 12:01:55;;;;;;;11.43;8.35;;;;;;;30.80;32.11;100891.00;6278213;22;20074;-74
2021/09/12 12:04:43;;;;;;;12.10;7.57;;;;;;;30.36;32.31;100886.34;6279078;22;20004;-74
2021/09/12 12:07:36;;;;;;;14.35;8.48;;;;;;;31.17;32.57;100889.03;6257949;22;20417;-73
2021/09/12 12:10:34;;;;;;;11.68;6.78;;;;;;;31.42;31.90;100886.59;6277724;22;20007;-73
2021/09/12 12:13:32;;;;;;;10.75;7.40;;;;;;;31.13;32.37;100882.22;6278829;22;20004;-73
2021/09/12 12:16:18;;;;;;;10.07;7.03;;;;;;;31.92;31.27;100879.56;6278157;22;20007;-73
2021/09/12 12:19:07;;;;;;;11.02;7.38;;;;;;;31.12;31.87;100875.13;6278062;22;20015;-73
2021/09/12 12:22:04;;;;;;;10.50;7.10;;;;;;;31.43;31.71;100872.91;6277075;22;20011;-73
2021/09/12 12:24:54;;;;;;;10.60;7.28;;;;;;;31.87;31.81;100876.47;6255486;22;20023;-73
2021/09/12 12:27:42;;;;;;;12.48;7.20;;;;;;;30.40;31.42;100874.25;6277416;22;20371;-73
2021/09/12 12:30:28;;;;;;;9.80;6.85;;;;;;;31.31;31.26;100866.84;6276812;22;20087;-74
2021/09/12 12:33:15;;;;;;;10.35;7.30;;;;;;;31.29;31.31;100863.47;6278522;22;20004;-73
2021/09/12 12:36:07;;;;;;;10.57;7.15;;;;;;;31.37;31.11;100867.25;6279017;22;20414;-73
2021/09/12 12:38:53;;;;;;;8.70;6.65;;;;;;;31.64;30.19;100867.13;6276257;22;20003;-74